createdAt,value
2019-03-12T00:01:21.157Z,78.07
2019-03-12T00:03:51.979Z,77.47
2019-03-12T00:06:22.925Z,78.05
2019-03-12T00:08:53.527Z,78.06
2019-03-12T00:11:24.263Z,78.29
2019-03-12T00:13:54.930Z,78.39
2019-03-12T00:16:26.032Z,78.73
2019-03-12T00:18:56.779Z,78.36
2019-03-12T00:21:27.399Z,78.75
2019-03-12T00:23:58.467Z,78.72
2019-03-12T00:26:29.098Z,78.78
2019-03-12T00:28:59.772Z,78.69
2019-03-12T00:31:31.063Z,78.79
2019-03-12T00:34:01.879Z,79.04
2019-03-12T00:36:32.643Z,79.33
2019-03-12T00:39:03.787Z,79.36
2019-03-12T00:41:36.607Z,79.19
2019-03-12T00:44:07.564Z,78.82
2019-03-12T00:46:38.471Z,78.98
2019-03-12T00:49:09.303Z,79.25
2019-03-12T00:51:40.127Z,79.08
2019-03-12T00:54:11.023Z,78.89
2019-03-12T00:56:41.903Z,79.36
2019-03-12T00:59:12.674Z,79.23
2019-03-12T01:01:43.472Z,78.96
2019-03-12T01:04:14.116Z,79.31
2019-03-12T01:06:45.009Z,79.53
2019-03-12T01:09:15.876Z,79.54
2019-03-12T01:11:46.581Z,79.58
2019-03-12T01:14:17.764Z,79.71
2019-03-12T01:16:48.590Z,79.51
2019-03-12T01:19:19.479Z,79.40
2019-03-12T01:21:50.335Z,78.77
2019-03-12T01:24:21.209Z,79.06
2019-03-12T01:26:51.936Z,79.50
2019-03-12T01:29:22.720Z,79.79
2019-03-12T01:31:53.511Z,80.04
2019-03-12T01:34:24.671Z,79.72
2019-03-12T01:36:55.595Z,78.97
2019-03-12T01:39:26.396Z,76.78
2019-03-12T01:41:57.180Z,75.18
2019-03-12T01:44:27.869Z,75.67
2019-03-12T01:46:58.762Z,75.32
2019-03-12T01:49:29.431Z,76.35
2019-03-12T01:52:00.217Z,76.36
2019-03-12T01:54:31.136Z,75.57
2019-03-12T01:57:02.013Z,75.68
2019-03-12T01:59:32.942Z,74.98
2019-03-12T02:02:03.822Z,74.93
2019-03-12T02:04:34.647Z,74.72
2019-03-12T02:07:05.211Z,74.63
2019-03-12T02:09:35.911Z,74.94
2019-03-12T02:12:06.823Z,73.95
2019-03-12T02:14:37.556Z,74.36
2019-03-12T02:17:08.255Z,74.77
2019-03-12T02:19:39.156Z,75.13
2019-03-12T02:22:09.923Z,75.32
2019-03-12T02:24:52.282Z,74.42
2019-03-12T02:27:13.510Z,76.29
2019-03-12T02:29:44.224Z,76.52
2019-03-12T02:32:15.065Z,77.28
2019-03-12T02:34:45.954Z,77.49
2019-03-12T02:37:16.846Z,78.10
2019-03-12T02:39:47.591Z,77.66
2019-03-12T02:42:18.273Z,77.38
2019-03-12T02:44:49.083Z,77.67
2019-03-12T02:47:19.633Z,77.81
2019-03-12T02:49:50.426Z,77.99
2019-03-12T02:52:21.505Z,78.47
2019-03-12T02:54:52.228Z,78.60
2019-03-12T02:57:23.177Z,78.61
2019-03-12T02:59:54.108Z,78.46
2019-03-12T03:02:24.983Z,78.29
2019-03-12T03:04:56.016Z,78.18
2019-03-12T03:07:44.409Z,78.36
2019-03-12T03:10:15.701Z,78.64
2019-03-12T03:12:46.583Z,79.07
2019-03-12T03:15:19.398Z,79.15
2019-03-12T03:17:50.237Z,79.20
2019-03-12T03:20:21.271Z,79.11
2019-03-12T03:22:51.978Z,79.25
2019-03-12T03:25:22.872Z,79.32
2019-03-12T03:27:53.550Z,79.50
2019-03-12T03:30:25.019Z,79.20
2019-03-12T03:32:56.002Z,79.39
2019-03-12T03:35:26.771Z,78.87
2019-03-12T03:37:57.710Z,78.80
2019-03-12T03:40:28.623Z,78.79
2019-03-12T03:42:59.624Z,79.20
2019-03-12T03:45:31.288Z,78.99
2019-03-12T03:48:02.224Z,78.89
2019-03-12T03:50:33.509Z,78.75
2019-03-12T03:53:04.373Z,78.64
2019-03-12T03:55:35.184Z,78.82
2019-03-12T03:58:05.986Z,78.97
2019-03-12T04:00:36.941Z,78.81
2019-03-12T04:03:07.719Z,79.04
2019-03-12T04:05:38.485Z,79.09
2019-03-12T04:08:10.345Z,79.36
2019-03-12T04:10:41.215Z,79.21
2019-03-12T04:13:11.986Z,79.34
2019-03-12T04:15:43.017Z,79.13
2019-03-12T04:18:13.710Z,79.04
2019-03-12T04:20:44.459Z,78.88
2019-03-12T04:23:16.217Z,78.97
2019-03-12T04:25:47.182Z,78.95
2019-03-12T04:28:17.908Z,79.09
2019-03-12T04:30:48.689Z,79.05
2019-03-12T04:33:55.171Z,79.12
2019-03-12T04:36:27.021Z,79.13
2019-03-12T04:38:57.906Z,78.99
2019-03-12T04:41:28.762Z,79.32
2019-03-12T04:43:59.710Z,79.18
2019-03-12T04:46:30.438Z,79.17
2019-03-12T04:49:01.339Z,79.37
2019-03-12T04:51:32.175Z,79.44
2019-03-12T04:54:03.079Z,79.30
2019-03-12T04:56:33.851Z,79.16
2019-03-12T04:59:04.719Z,79.25
2019-03-12T05:01:35.490Z,79.37
2019-03-12T05:04:06.388Z,79.23
2019-03-12T05:06:37.259Z,79.12
2019-03-12T05:09:09.535Z,79.23
2019-03-12T05:11:40.519Z,79.38
2019-03-12T05:14:43.461Z,79.59
2019-03-12T05:17:28.330Z,79.67
2019-03-12T05:19:59.140Z,79.32
2019-03-12T05:22:29.903Z,79.58
2019-03-12T05:25:00.697Z,79.47
2019-03-12T05:27:31.666Z,79.63
2019-03-12T05:30:02.442Z,79.91
2019-03-12T05:32:34.578Z,80.64
2019-03-12T05:35:05.955Z,80.92
2019-03-12T05:37:36.827Z,81.00
2019-03-12T05:40:08.232Z,80.87
2019-03-12T05:42:39.109Z,80.71
2019-03-12T05:45:10.198Z,80.64
2019-03-12T05:47:40.984Z,80.50
2019-03-12T05:50:12.082Z,80.39
2019-03-12T05:52:42.899Z,80.36
2019-03-12T05:55:14.648Z,80.27
2019-03-12T05:57:45.523Z,79.81
2019-03-12T06:00:16.807Z,79.85
2019-03-12T06:02:47.824Z,79.42
2019-03-12T06:05:18.687Z,78.76
2019-03-12T06:07:49.789Z,79.09
2019-03-12T06:10:20.509Z,79.52
2019-03-12T06:12:51.192Z,79.32
2019-03-12T06:15:22.186Z,79.72
2019-03-12T06:17:52.898Z,80.24
2019-03-12T06:20:23.572Z,80.25
2019-03-12T06:22:54.486Z,79.57
2019-03-12T06:25:25.648Z,79.79
2019-03-12T06:27:56.315Z,79.90
2019-03-12T06:30:28.579Z,79.73
2019-03-12T06:33:05.192Z,78.65
2019-03-12T06:35:43.131Z,78.73
2019-03-12T06:38:32.035Z,78.89
2019-03-12T06:41:08.374Z,78.27
2019-03-12T06:43:53.392Z,77.25
2019-03-12T06:46:45.448Z,76.35
2019-03-12T06:49:38.048Z,75.36
2019-03-12T06:52:26.353Z,75.46
2019-03-12T06:55:15.098Z,75.29
2019-03-12T06:58:27.288Z,76.00
2019-03-12T07:01:22.897Z,76.20
2019-03-12T07:04:13.514Z,75.79
2019-03-12T07:07:12.839Z,76.29
2019-03-12T07:10:02.705Z,76.32
2019-03-12T07:12:57.439Z,76.58
2019-03-12T07:15:36.106Z,78.18
2019-03-12T07:18:14.458Z,78.70
2019-03-12T07:21:13.171Z,78.63
2019-03-12T07:24:18.152Z,78.78
2019-03-12T07:27:02.733Z,78.26
2019-03-12T07:29:55.203Z,77.05
2019-03-12T07:32:47.727Z,76.56
2019-03-12T07:35:52.415Z,76.34
2019-03-12T07:38:35.267Z,75.79
2019-03-12T07:41:25.171Z,73.85
2019-03-12T07:44:15.006Z,74.52
2019-03-12T07:47:10.713Z,73.00
2019-03-12T07:50:02.033Z,72.40
2019-03-12T07:53:00.700Z,71.98
2019-03-12T07:55:46.255Z,71.89
2019-03-12T07:58:44.923Z,70.49
2019-03-12T08:01:33.597Z,70.72
2019-03-12T08:04:26.551Z,72.26
2019-03-12T08:07:13.185Z,72.89
2019-03-12T08:09:51.210Z,72.07
2019-03-12T08:12:41.049Z,71.97
2019-03-12T08:15:23.414Z,72.61
2019-03-12T08:18:13.035Z,71.60
2019-03-12T08:21:07.473Z,71.25
2019-03-12T08:23:56.814Z,70.65
2019-03-12T08:26:38.842Z,70.22
2019-03-12T08:29:37.734Z,68.37
2019-03-12T08:32:14.300Z,69.30
2019-03-12T08:35:03.399Z,67.53
2019-03-12T08:37:44.850Z,67.74
2019-03-12T08:40:34.489Z,66.22
2019-03-12T08:43:13.965Z,67.04
2019-03-12T08:45:53.403Z,66.99
2019-03-12T08:48:43.101Z,66.30
2019-03-12T08:51:30.718Z,63.67
2019-03-12T08:54:23.614Z,63.61
2019-03-12T08:57:14.059Z,63.59
2019-03-12T09:00:15.815Z,61.80
2019-03-12T09:02:59.608Z,63.02
2019-03-12T09:05:52.164Z,60.52
2019-03-12T09:08:39.481Z,59.02
2019-03-12T09:11:29.136Z,58.22
2019-03-12T09:14:37.220Z,55.45
2019-03-12T09:17:24.235Z,55.19
2019-03-12T09:20:19.341Z,53.81
2019-03-12T09:23:14.847Z,52.84
2019-03-12T09:26:13.403Z,53.30
2019-03-12T09:28:53.643Z,48.98
2019-03-12T09:31:33.441Z,47.75
2019-03-12T09:34:18.350Z,47.50
2019-03-12T09:37:07.998Z,45.02
2019-03-12T09:39:48.189Z,43.11
2019-03-12T09:42:37.935Z,44.80
2019-03-12T09:45:19.610Z,43.47
2019-03-12T09:48:15.429Z,45.11
2019-03-12T09:51:11.113Z,42.68
2019-03-12T09:53:54.377Z,45.05
2019-03-12T09:56:37.032Z,42.99
2019-03-12T09:59:26.787Z,42.18
2019-03-12T10:02:25.479Z,41.55
2019-03-12T10:05:02.651Z,41.97
2019-03-12T10:08:07.588Z,42.77
2019-03-12T10:10:54.298Z,41.55
2019-03-12T10:13:37.945Z,42.85
2019-03-12T10:16:42.894Z,40.53
2019-03-12T10:19:50.569Z,40.18
2019-03-12T10:22:38.727Z,42.99
2019-03-12T10:25:27.746Z,39.87
2019-03-12T10:28:18.932Z,39.25
2019-03-12T10:31:14.713Z,39.15
2019-03-12T10:34:10.526Z,38.92
2019-03-12T10:36:46.574Z,39.04
2019-03-12T10:40:25.028Z,39.06
2019-03-12T10:43:11.300Z,40.56
2019-03-12T10:46:01.530Z,41.78
2019-03-12T10:48:33.122Z,39.76
2019-03-12T10:51:04.038Z,41.01
2019-03-12T10:53:36.131Z,38.20
2019-03-12T10:56:06.846Z,36.63
2019-03-12T10:58:37.721Z,37.25
2019-03-12T11:01:08.620Z,38.17
2019-03-12T11:03:39.538Z,38.67
2019-03-12T11:06:10.610Z,36.96
2019-03-12T11:08:41.407Z,36.90
2019-03-12T11:11:12.166Z,37.90
2019-03-12T11:13:43.236Z,37.19
2019-03-12T11:16:13.977Z,36.80
2019-03-12T11:18:44.771Z,38.49
2019-03-12T11:21:15.522Z,35.71
2019-03-12T11:23:46.724Z,34.89
2019-03-12T11:26:17.492Z,34.03
2019-03-12T11:28:48.269Z,34.42
2019-03-12T11:31:19.309Z,33.62
2019-03-12T11:33:50.240Z,35.73
2019-03-12T11:36:21.129Z,37.78
2019-03-12T11:38:52.018Z,35.11
2019-03-12T11:41:23.087Z,33.24
2019-03-12T11:43:53.861Z,35.64
2019-03-12T11:46:24.821Z,36.88
2019-03-12T11:48:55.668Z,34.66
2019-03-12T11:51:26.602Z,36.55
2019-03-12T11:53:57.312Z,35.49
2019-03-12T11:56:28.255Z,34.58
2019-03-12T11:58:58.882Z,35.95
2019-03-12T12:01:30.317Z,34.44
2019-03-12T12:04:01.165Z,33.06
2019-03-12T12:06:31.925Z,34.15
2019-03-12T12:09:02.913Z,34.48
2019-03-12T12:11:35.364Z,34.95
2019-03-12T12:14:06.284Z,35.04
2019-03-12T12:16:37.271Z,36.35
2019-03-12T12:19:08.323Z,35.07
2019-03-12T12:21:39.399Z,37.14
2019-03-12T12:24:10.111Z,35.51
2019-03-12T12:26:41.006Z,36.16
2019-03-12T12:29:11.886Z,35.11
2019-03-12T12:31:42.867Z,35.01
2019-03-12T12:34:13.559Z,34.76
2019-03-12T12:36:44.338Z,34.43
2019-03-12T12:39:15.028Z,35.97
2019-03-12T12:41:45.906Z,35.64
2019-03-12T12:44:16.623Z,37.74
2019-03-12T12:46:47.516Z,36.98
2019-03-12T12:49:18.408Z,34.76
2019-03-12T12:51:49.545Z,35.14
2019-03-12T12:54:20.261Z,35.41
2019-03-12T12:56:51.227Z,33.66
2019-03-12T12:59:22.052Z,32.02
2019-03-12T13:01:53.576Z,31.89
2019-03-12T13:04:24.465Z,31.12
2019-03-12T13:06:55.320Z,32.81
2019-03-12T13:09:26.080Z,34.82
2019-03-12T13:11:57.351Z,33.52
2019-03-12T13:14:40.722Z,34.99
2019-03-12T13:17:00.507Z,34.79
2019-03-12T13:19:31.445Z,35.23
2019-03-12T13:22:02.275Z,33.86
2019-03-12T13:24:33.049Z,34.90
2019-03-12T13:27:04.239Z,35.13
2019-03-12T13:29:35.159Z,33.34
2019-03-12T13:32:13.488Z,33.11
2019-03-12T13:34:38.819Z,32.48
2019-03-12T13:37:09.686Z,31.79
2019-03-12T13:39:40.497Z,35.21
2019-03-12T13:42:11.156Z,32.32
2019-03-12T13:44:41.837Z,31.71
2019-03-12T13:47:12.798Z,32.13
2019-03-12T13:49:43.588Z,33.31
2019-03-12T13:52:14.520Z,34.17
2019-03-12T13:54:45.381Z,35.48
2019-03-12T13:57:16.247Z,33.72
2019-03-12T13:59:47.056Z,34.10
2019-03-12T14:02:17.946Z,34.56
2019-03-12T14:04:48.903Z,35.31
2019-03-12T14:07:19.660Z,34.31
2019-03-12T14:09:50.383Z,34.06
2019-03-12T14:12:21.533Z,34.85
2019-03-12T14:14:52.447Z,33.54
2019-03-12T14:17:23.503Z,33.64
2019-03-12T14:19:54.111Z,34.35
2019-03-12T14:22:24.992Z,34.39
2019-03-12T14:24:55.809Z,32.59
2019-03-12T14:27:26.696Z,33.71
2019-03-12T14:29:57.384Z,31.67
2019-03-12T14:32:28.215Z,32.86
2019-03-12T14:34:59.307Z,33.89
2019-03-12T14:37:30.164Z,34.81
2019-03-12T14:40:00.906Z,33.79
2019-03-12T14:42:31.922Z,34.01
2019-03-12T14:45:02.807Z,33.34
2019-03-12T14:47:34.459Z,33.52
2019-03-12T14:50:05.708Z,34.02
2019-03-12T14:52:40.299Z,33.29
2019-03-12T14:55:11.287Z,31.91
2019-03-12T14:57:42.208Z,33.49
2019-03-12T15:00:20.035Z,31.72
2019-03-12T15:02:51.051Z,33.32
2019-03-12T15:05:22.400Z,31.30
2019-03-12T15:07:53.208Z,32.87
2019-03-12T15:10:24.096Z,33.33
2019-03-12T15:12:54.914Z,33.04
2019-03-12T15:15:25.684Z,33.32
2019-03-12T15:17:56.583Z,33.92
2019-03-12T15:20:27.467Z,32.85
2019-03-12T15:22:59.175Z,33.71
2019-03-12T15:25:30.223Z,33.98
2019-03-12T15:28:01.126Z,33.66
2019-03-12T15:30:31.795Z,33.90
2019-03-12T15:33:02.595Z,32.31
2019-03-12T15:35:33.874Z,33.62
2019-03-12T15:38:04.949Z,32.48
2019-03-12T15:40:35.860Z,33.30
2019-03-12T15:43:06.767Z,33.01
2019-03-12T15:45:37.658Z,32.52
2019-03-12T15:48:08.568Z,35.39
2019-03-12T15:50:39.534Z,33.50
2019-03-12T15:53:10.462Z,33.95
2019-03-12T15:55:42.346Z,34.76
2019-03-12T15:58:13.032Z,35.35
2019-03-12T16:00:43.719Z,33.39
2019-03-12T16:03:14.472Z,33.23
2019-03-12T16:05:45.308Z,33.05
2019-03-12T16:08:16.084Z,36.13
2019-03-12T16:10:57.256Z,36.36
2019-03-12T16:13:19.930Z,35.32
2019-03-12T16:15:50.696Z,35.39
2019-03-12T16:18:21.578Z,35.62
2019-03-12T16:20:52.471Z,38.09
2019-03-12T16:23:23.532Z,36.30
2019-03-12T16:25:54.519Z,35.61
2019-03-12T16:28:25.288Z,36.48
2019-03-12T16:30:56.178Z,35.00
2019-03-12T16:33:27.104Z,36.34
2019-03-12T16:35:58.035Z,37.37
2019-03-12T16:38:29.108Z,37.05
2019-03-12T16:40:59.992Z,37.60
2019-03-12T16:43:30.767Z,45.07
2019-03-12T16:46:01.658Z,44.99
2019-03-12T16:48:32.478Z,48.62
2019-03-12T16:51:03.474Z,47.58
2019-03-12T16:53:34.249Z,49.84
2019-03-12T16:56:04.745Z,49.65
2019-03-12T16:58:36.491Z,50.75
2019-03-12T17:01:07.392Z,49.17
2019-03-12T17:03:38.831Z,49.87
2019-03-12T17:06:10.631Z,50.51
2019-03-12T17:08:41.301Z,51.30
2019-03-12T17:11:12.100Z,50.55
2019-03-12T17:13:42.991Z,50.69
2019-03-12T17:16:13.735Z,51.80
2019-03-12T17:18:44.618Z,52.15
2019-03-12T17:21:15.508Z,52.33
2019-03-12T17:23:46.290Z,52.68
2019-03-12T17:26:17.126Z,52.03
2019-03-12T17:28:48.090Z,52.43
2019-03-12T17:31:18.992Z,51.26
2019-03-12T17:33:49.676Z,51.57
2019-03-12T17:36:20.526Z,52.10
2019-03-12T17:38:51.511Z,51.61
2019-03-12T17:41:22.208Z,51.79
2019-03-12T17:43:52.989Z,51.83
2019-03-12T17:46:23.906Z,52.36
2019-03-12T17:48:54.896Z,52.26
2019-03-12T17:51:25.688Z,52.48
2019-03-12T17:53:56.534Z,51.73
2019-03-12T17:56:27.325Z,53.03
2019-03-12T17:58:58.218Z,50.55
2019-03-12T18:01:30.060Z,45.34
2019-03-12T18:04:01.738Z,48.96
2019-03-12T18:06:35.173Z,42.08
2019-03-12T18:09:08.702Z,48.13
2019-03-12T18:11:39.998Z,48.85
2019-03-12T18:14:10.788Z,50.19
2019-03-12T18:16:41.713Z,49.17
2019-03-12T18:19:12.530Z,46.98
2019-03-12T18:21:43.335Z,42.05
2019-03-12T18:24:14.141Z,37.47
2019-03-12T18:26:45.078Z,33.19
2019-03-12T18:29:15.881Z,31.76
2019-03-12T18:31:48.774Z,32.28
2019-03-12T18:34:19.524Z,29.18
2019-03-12T18:36:51.332Z,28.52
2019-03-12T18:39:22.146Z,28.00
2019-03-12T18:41:55.830Z,28.19
2019-03-12T18:44:25.872Z,27.53
2019-03-12T18:46:56.745Z,27.05
2019-03-12T18:49:27.452Z,26.80
2019-03-12T18:51:58.288Z,26.12
2019-03-12T18:54:30.275Z,28.16
2019-03-12T18:57:01.441Z,26.18
2019-03-12T18:59:32.193Z,26.31
2019-03-12T19:02:04.154Z,25.60
2019-03-12T19:04:34.928Z,25.76
2019-03-12T19:07:05.829Z,24.77
2019-03-12T19:09:37.000Z,24.56
2019-03-12T19:12:07.776Z,24.32
2019-03-12T19:14:38.655Z,24.43
2019-03-12T19:17:09.686Z,24.28
2019-03-12T19:19:40.668Z,23.48
2019-03-12T19:22:11.624Z,24.32
2019-03-12T19:24:42.515Z,24.31
2019-03-12T19:27:13.309Z,24.13
2019-03-12T19:29:44.212Z,24.45
2019-03-12T19:32:39.806Z,24.23
2019-03-12T19:35:12.647Z,24.51
2019-03-12T19:37:43.516Z,24.13
2019-03-12T19:40:16.515Z,24.35
2019-03-12T19:42:47.303Z,24.07
2019-03-12T19:45:18.084Z,26.40
2019-03-12T19:47:48.875Z,23.92
2019-03-12T19:50:19.748Z,23.88
2019-03-12T19:52:50.685Z,24.28
2019-03-12T19:55:23.880Z,24.63
2019-03-12T19:57:54.907Z,25.14
2019-03-12T20:00:26.991Z,24.70
2019-03-12T20:03:10.255Z,25.20
2019-03-12T20:05:32.915Z,25.84
2019-03-12T20:08:03.780Z,24.29
2019-03-12T20:11:04.504Z,23.98
2019-03-12T20:14:34.427Z,24.37
2019-03-12T20:17:32.422Z,24.20
2019-03-12T20:21:11.397Z,26.48
2019-03-12T20:24:29.193Z,26.88
2019-03-12T20:27:58.841Z,26.83
2019-03-12T20:31:05.588Z,27.86
2019-03-12T20:34:31.411Z,27.04
2019-03-12T20:37:37.936Z,27.40
2019-03-12T20:40:43.016Z,28.61
2019-03-12T20:44:02.635Z,28.18
2019-03-12T20:47:18.883Z,28.72
2019-03-12T20:50:26.536Z,28.01
2019-03-12T20:53:32.663Z,26.70
2019-03-12T20:56:56.036Z,27.54
2019-03-12T21:00:02.296Z,28.17
2019-03-12T21:03:27.621Z,27.96
2019-03-12T21:06:42.072Z,28.40
2019-03-12T21:09:56.272Z,28.83
2019-03-12T21:13:22.970Z,28.46
2019-03-12T21:16:34.573Z,29.06
2019-03-12T21:19:57.421Z,28.15
2019-03-12T21:22:53.554Z,27.96
2019-03-12T21:26:05.502Z,28.40
2019-03-12T21:29:32.194Z,28.18
2019-03-12T21:32:03.235Z,29.05
2019-03-12T21:34:34.176Z,28.95
2019-03-12T21:37:05.227Z,29.59
2019-03-12T21:39:36.778Z,29.68
2019-03-12T21:42:08.212Z,29.41
2019-03-12T21:44:38.952Z,29.10
2019-03-12T21:47:09.915Z,30.02
2019-03-12T21:49:40.720Z,29.28
2019-03-12T21:52:11.487Z,29.93
2019-03-12T21:54:42.876Z,29.87
2019-03-12T21:57:13.822Z,30.22
2019-03-12T21:59:44.687Z,31.02
2019-03-12T22:02:15.627Z,30.47
2019-03-12T22:04:47.376Z,31.45
2019-03-12T22:07:18.243Z,31.66
2019-03-12T22:09:48.920Z,31.19
2019-03-12T22:12:19.788Z,31.40
2019-03-12T22:14:50.591Z,31.55
2019-03-12T22:17:21.444Z,31.79
2019-03-12T22:19:53.192Z,31.74
2019-03-12T22:22:31.215Z,32.58
2019-03-12T22:25:01.921Z,32.25
2019-03-12T22:27:32.695Z,33.01
2019-03-12T22:30:03.564Z,33.21
2019-03-12T22:32:36.263Z,33.76
2019-03-12T22:35:08.064Z,34.75
2019-03-12T22:37:39.014Z,34.56
2019-03-12T22:40:11.240Z,35.78
2019-03-12T22:42:42.058Z,35.22
2019-03-12T22:45:13.119Z,35.21
2019-03-12T22:47:43.801Z,36.38
2019-03-12T22:50:14.789Z,36.82
2019-03-12T22:52:45.616Z,39.56
2019-03-12T22:55:16.600Z,43.96
2019-03-12T22:57:47.477Z,45.85
2019-03-12T23:00:40.064Z,49.00
2019-03-12T23:03:28.753Z,55.32
2019-03-12T23:06:17.491Z,57.78
2019-03-12T23:09:07.708Z,58.03
2019-03-12T23:11:40.062Z,58.21
2019-03-12T23:14:11.031Z,58.49
2019-03-12T23:16:42.451Z,58.28
2019-03-12T23:19:13.588Z,59.15
2019-03-12T23:21:44.487Z,59.96
2019-03-12T23:24:15.534Z,60.84
2019-03-12T23:26:46.512Z,61.09
2019-03-12T23:29:17.663Z,61.54
2019-03-12T23:31:48.527Z,62.00
2019-03-12T23:34:19.394Z,63.15
2019-03-12T23:36:51.336Z,62.29
2019-03-12T23:39:22.084Z,61.97
2019-03-12T23:41:53.061Z,62.09
2019-03-12T23:44:24.916Z,63.15
2019-03-12T23:46:56.050Z,62.88
2019-03-12T23:49:27.140Z,60.45
2019-03-12T23:51:58.139Z,57.64
2019-03-12T23:54:29.167Z,57.30
2019-03-12T23:56:59.884Z,56.69
2019-03-12T23:59:30.715Z,56.82
